Time;durP1;ratioP1;P1;durP2;ratioP2;P2;SDS_P1;SDS_P2;PMS_P1;PMS_P2;Temp;Humidity;BMP_temperature;BMP_pressure;BME280_temperature;BME280_humidity;BME280_pressure;Samples;Min_cycle;Max_cycle;Signal;HPM_P1;HPM_P2
2022/01/30 00:00:44;;;;;;;29.45;15.73;;;;;;;;;;5049746;28;20049;-66
2022/01/30 00:03:11;;;;;;;33.13;15.93;;;;;;;;;;5049841;28;20036;-66
2022/01/30 00:05:37;;;;;;;27.35;14.48;;;;;;;;;;5048481;28;20059;-66
2022/01/30 00:08:02;;;;;;;26.67;14.63;;;;;;;;;;5049506;28;20036;-66
2022/01/30 00:10:30;;;;;;;28.95;13.80;;;;;;;;;;5049842;28;20040;-66
2022/01/30 00:12:59;;;;;;;27.77;14.20;;;;;;;;;;5049744;28;20029;-66
2022/01/30 00:15:38;;;;;;;24.42;13.40;;;;;;;;;;5049637;28;20056;-66
2022/01/30 00:18:39;;;;;;;26.15;13.15;;;;;;;;;;5049343;28;20086;-66
2022/01/30 00:21:40;;;;;;;21.52;11.85;;;;;;;;;;5049170;28;20025;-66
2022/01/30 00:23:48;;;;;;;21.00;11.02;;;;;;;;;;5046327;28;20512;-66
2022/01/30 00:26:16;;;;;;;20.67;10.75;;;;;;;;;;5049585;28;20892;-66
2022/01/30 00:28:41;;;;;;;21.27;11.70;;;;;;;;;;5049390;28;20265;-66
2022/01/30 00:31:08;;;;;;;16.15;10.20;;;;;;;;;;5049632;28;20100;-64
2022/01/30 00:33:34;;;;;;;17.75;9.20;;;;;;;;;;5049934;28;20489;-65
2022/01/30 00:35:59;;;;;;;22.02;10.48;;;;;;;;;;5049549;28;20029;-64
2022/01/30 00:38:26;;;;;;;16.38;9.43;;;;;;;;;;5049014;28;20052;-66
2022/01/30 00:40:52;;;;;;;19.50;9.15;;;;;;;;;;5049413;28;20033;-66
2022/01/30 00:43:19;;;;;;;15.38;8.88;;;;;;;;;;5049564;28;20074;-66
2022/01/30 00:45:46;;;;;;;14.65;8.05;;;;;;;;;;5049184;28;20036;-66
2022/01/30 00:48:11;;;;;;;15.25;8.10;;;;;;;;;;5049367;28;20056;-67
2022/01/30 00:50:37;;;;;;;21.15;9.30;;;;;;;;;;5049540;28;20106;-66
2022/01/30 00:53:03;;;;;;;15.77;8.38;;;;;;;;;;5049356;28;20147;-66
2022/01/30 00:55:30;;;;;;;16.50;8.27;;;;;;;;;;5049173;28;20025;-66
2022/01/30 00:57:57;;;;;;;18.83;8.32;;;;;;;;;;5049005;28;20025;-66
2022/01/30 01:00:24;;;;;;;17.20;8.73;;;;;;;;;;5049125;28;20029;-65
2022/01/30 01:02:49;;;;;;;18.60;8.45;;;;;;;;;;5049294;28;20036;-65
2022/01/30 01:05:15;;;;;;;15.38;8.27;;;;;;;;;;5049328;28;20057;-66
2022/01/30 01:07:45;;;;;;;16.65;8.27;;;;;;;;;;5049744;28;20031;-66
2022/01/30 01:10:25;;;;;;;17.83;8.20;;;;;;;;;;5049251;28;20121;-66
2022/01/30 01:23:52;;;;;;;14.20;7.53;;;;;;;;;;5052977;28;20654;-67
2022/01/30 01:26:20;;;;;;;16.25;7.70;;;;;;;;;;5052611;28;20033;-66
2022/01/30 01:28:46;;;;;;;14.18;7.80;;;;;;;;;;5052393;28;20021;-66
2022/01/30 01:31:12;;;;;;;15.77;7.53;;;;;;;;;;5052577;28;20036;-66
2022/01/30 01:36:15;;;;;;;14.48;7.45;;;;;;;;;;5052265;28;20021;-66
2022/01/30 01:38:41;;;;;;;14.50;7.55;;;;;;;;;;5051819;28;20037;-66
2022/01/30 01:41:06;;;;;;;14.68;7.55;;;;;;;;;;5052380;28;20021;-65
2022/01/30 01:43:32;;;;;;;13.68;6.97;;;;;;;;;;5052352;28;20095;-64
2022/01/30 01:45:59;;;;;;;15.48;7.30;;;;;;;;;;5052060;28;20121;-67
2022/01/30 01:48:25;;;;;;;11.95;6.97;;;;;;;;;;5051943;28;20108;-66
2022/01/30 01:50:55;;;;;;;14.48;7.25;;;;;;;;;;5052007;28;20107;-66
2022/01/30 01:53:23;;;;;;;13.38;6.82;;;;;;;;;;5051944;28;20423;-66
2022/01/30 01:55:49;;;;;;;12.27;7.28;;;;;;;;;;5051676;28;20033;-66
2022/01/30 01:58:15;;;;;;;13.40;7.15;;;;;;;;;;5051678;28;20362;-65
2022/01/30 02:00:40;;;;;;;13.95;7.10;;;;;;;;;;5051992;28;20028;-65
2022/01/30 02:03:06;;;;;;;15.13;7.13;;;;;;;;;;5051900;28;20568;-66
2022/01/30 02:05:34;;;;;;;14.50;7.80;;;;;;;;;;5052019;28;20154;-66
2022/01/30 02:08:38;;;;;;;16.60;7.82;;;;;;;;;;5051697;28;20370;-65
2022/01/30 02:24:37;;;;;;;14.55;6.88;;;;;;;;;;5051787;28;20095;-65
2022/01/30 02:27:04;;;;;;;12.80;6.53;;;;;;;;;;5051355;28;20037;-66
2022/01/30 02:29:30;;;;;;;14.82;6.38;;;;;;;;;;5051129;28;20043;-66
2022/01/30 02:31:57;;;;;;;11.85;6.03;;;;;;;;;;5051431;28;20033;-66
2022/01/30 02:34:27;;;;;;;15.43;6.95;;;;;;;;;;5051177;28;20024;-65
2022/01/30 02:36:54;;;;;;;11.40;6.35;;;;;;;;;;5051089;28;20032;-65
2022/01/30 02:39:20;;;;;;;15.15;6.40;;;;;;;;;;5050835;28;20053;-66
2022/01/30 02:41:46;;;;;;;11.48;6.40;;;;;;;;;;5051400;28;20033;-64
2022/01/30 02:46:52;;;;;;;13.80;6.40;;;;;;;;;;5051202;28;20127;-66
2022/01/30 02:51:53;;;;;;;13.18;6.35;;;;;;;;;;5050999;28;20032;-65
2022/01/30 02:54:19;;;;;;;11.65;6.35;;;;;;;;;;5050810;28;20033;-66
2022/01/30 02:56:45;;;;;;;13.55;6.68;;;;;;;;;;5051051;28;20114;-66
2022/01/30 02:59:11;;;;;;;12.73;6.03;;;;;;;;;;5050885;28;20056;-67
2022/01/30 03:01:37;;;;;;;12.38;6.18;;;;;;;;;;5050888;28;20417;-66
2022/01/30 03:04:03;;;;;;;11.15;5.97;;;;;;;;;;5050877;28;20052;-65
2022/01/30 03:06:29;;;;;;;12.57;6.32;;;;;;;;;;5050666;28;20028;-65
2022/01/30 03:08:54;;;;;;;12.18;6.43;;;;;;;;;;5050443;28;20082;-66
2022/01/30 03:11:21;;;;;;;9.90;5.55;;;;;;;;;;5050742;28;20247;-66
2022/01/30 03:13:47;;;;;;;12.25;5.80;;;;;;;;;;5050395;28;20083;-67
2022/01/30 03:16:13;;;;;;;11.70;5.70;;;;;;;;;;5050431;28;20021;-66
2022/01/30 03:18:40;;;;;;;11.15;5.45;;;;;;;;;;5050395;28;20047;-65
2022/01/30 03:21:06;;;;;;;13.35;5.95;;;;;;;;;;5050331;28;20071;-66
2022/01/30 03:23:36;;;;;;;10.18;5.47;;;;;;;;;;5050532;28;20021;-66
2022/01/30 03:26:02;;;;;;;10.23;5.50;;;;;;;;;;5050237;28;20044;-66
2022/01/30 03:28:28;;;;;;;12.40;5.70;;;;;;;;;;5050320;28;20032;-67
2022/01/30 03:30:58;;;;;;;10.20;5.85;;;;;;;;;;5049834;28;20033;-65
2022/01/30 03:33:24;;;;;;;11.68;5.60;;;;;;;;;;5049562;28;20067;-66
2022/01/30 03:35:50;;;;;;;13.07;5.70;;;;;;;;;;5050583;28;20060;-66
2022/01/30 03:38:15;;;;;;;13.52;5.90;;;;;;;;;;5050165;28;20485;-66
2022/01/30 03:40:43;;;;;;;13.73;5.63;;;;;;;;;;5050091;28;20021;-66
2022/01/30 03:43:08;;;;;;;9.32;5.40;;;;;;;;;;5050117;28;20388;-65
2022/01/30 03:45:34;;;;;;;13.88;5.53;;;;;;;;;;5049977;28;20028;-65
2022/01/30 03:48:00;;;;;;;11.55;5.53;;;;;;;;;;5049933;28;20064;-65
2022/01/30 03:50:25;;;;;;;13.77;5.80;;;;;;;;;;5049732;28;20044;-65
2022/01/30 03:52:51;;;;;;;11.55;5.65;;;;;;;;;;5050028;28;20025;-65
2022/01/30 03:55:16;;;;;;;10.82;5.70;;;;;;;;;;5050257;28;20037;-67
2022/01/30 03:57:42;;;;;;;10.45;5.32;;;;;;;;;;5049921;28;20264;-65
2022/01/30 04:00:08;;;;;;;11.25;5.40;;;;;;;;;;5049712;28;20029;-64
2022/01/30 04:02:34;;;;;;;14.10;4.90;;;;;;;;;;5049894;28;20477;-66
2022/01/30 04:04:59;;;;;;;9.07;5.68;;;;;;;;;;5049700;28;20420;-66
2022/01/30 04:07:26;;;;;;;11.45;5.68;;;;;;;;;;5049875;28;20029;-66
2022/01/30 04:09:52;;;;;;;11.80;5.45;;;;;;;;;;5049642;28;20033;-66
2022/01/30 04:12:18;;;;;;;13.43;5.47;;;;;;;;;;5048443;28;20043;-66
2022/01/30 04:14:43;;;;;;;11.35;5.82;;;;;;;;;;5049641;28;20472;-66
2022/01/30 04:17:09;;;;;;;9.00;5.50;;;;;;;;;;5049940;28;20036;-66
2022/01/30 04:19:36;;;;;;;12.32;5.60;;;;;;;;;;5049652;28;20052;-65
2022/01/30 04:22:01;;;;;;;8.27;4.65;;;;;;;;;;5049564;28;20491;-66
2022/01/30 04:24:27;;;;;;;9.43;5.00;;;;;;;;;;5049677;28;20025;-66
2022/01/30 04:26:52;;;;;;;10.07;5.18;;;;;;;;;;5049634;28;20029;-66
2022/01/30 04:29:18;;;;;;;11.35;5.25;;;;;;;;;;5049221;28;20635;-66
2022/01/30 04:31:43;;;;;;;10.55;5.55;;;;;;;;;;5049548;28;20048;-66
2022/01/30 04:34:10;;;;;;;11.15;5.90;;;;;;;;;;5049540;28;20120;-66
2022/01/30 04:36:41;;;;;;;13.10;5.30;;;;;;;;;;5049826;28;20033;-67
2022/01/30 04:39:35;;;;;;;11.73;5.60;;;;;;;;;;5049327;28;20491;-66
2022/01/30 05:07:48;;;;;;;7.57;4.63;;;;;;;;;;5053108;28;20029;-66
2022/01/30 05:10:14;;;;;;;9.93;4.90;;;;;;;;;;5052664;28;20504;-66
2022/01/30 05:12:48;;;;;;;9.30;5.00;;;;;;;;;;5052886;28;20121;-66
2022/01/30 05:15:17;;;;;;;11.43;5.30;;;;;;;;;;5052956;28;20025;-66
2022/01/30 05:17:43;;;;;;;10.23;4.72;;;;;;;;;;5052912;28;20516;-66
2022/01/30 05:20:09;;;;;;;9.68;4.72;;;;;;;;;;5052750;28;20132;-66
2022/01/30 05:22:35;;;;;;;11.98;4.82;;;;;;;;;;5052475;28;20133;-66
2022/01/30 05:25:01;;;;;;;10.50;4.85;;;;;;;;;;5052467;28;20108;-66
2022/01/30 05:27:26;;;;;;;11.25;5.38;;;;;;;;;;5052516;28;20029;-66
2022/01/30 05:29:52;;;;;;;9.40;5.32;;;;;;;;;;5052286;28;20036;-67
2022/01/30 05:32:18;;;;;;;10.90;5.38;;;;;;;;;;5052414;28;20025;-66
2022/01/30 05:34:44;;;;;;;10.85;4.88;;;;;;;;;;5052565;28;20147;-66
2022/01/30 05:37:11;;;;;;;9.65;4.95;;;;;;;;;;5052471;28;20400;-66
2022/01/30 05:39:37;;;;;;;9.73;4.93;;;;;;;;;;5052071;28;20048;-66
2022/01/30 05:42:03;;;;;;;11.00;5.28;;;;;;;;;;5052262;28;20035;-67
2022/01/30 05:44:43;;;;;;;8.90;4.85;;;;;;;;;;5052054;28;20021;-66
2022/01/30 05:47:13;;;;;;;10.18;5.38;;;;;;;;;;5052207;28;20052;-64
2022/01/30 05:49:40;;;;;;;10.32;5.05;;;;;;;;;;5052051;28;20025;-67
2022/01/30 05:52:06;;;;;;;8.95;4.88;;;;;;;;;;5052249;28;20104;-66
2022/01/30 05:54:31;;;;;;;9.70;4.97;;;;;;;;;;5052239;28;20166;-65
2022/01/30 05:56:56;;;;;;;9.75;5.18;;;;;;;;;;5051468;28;20123;-65
2022/01/30 05:59:22;;;;;;;10.15;4.70;;;;;;;;;;5051969;28;20040;-66
2022/01/30 06:01:47;;;;;;;9.18;5.03;;;;;;;;;;5051746;28;20033;-65
2022/01/30 06:04:13;;;;;;;9.15;4.82;;;;;;;;;;5051758;28;20025;-66
2022/01/30 06:06:47;;;;;;;11.73;4.90;;;;;;;;;;5051709;28;20032;-66
2022/01/30 06:11:50;;;;;;;10.95;4.72;;;;;;;;;;5051597;28;20029;-65
2022/01/30 06:14:16;;;;;;;8.55;4.72;;;;;;;;;;5051750;28;20024;-67
2022/01/30 06:16:42;;;;;;;11.52;4.55;;;;;;;;;;5051867;28;20033;-66
2022/01/30 06:19:08;;;;;;;13.25;4.93;;;;;;;;;;5051559;28;20036;-66
2022/01/30 06:21:33;;;;;;;12.80;4.97;;;;;;;;;;5050963;28;20100;-66
2022/01/30 06:23:59;;;;;;;12.02;5.13;;;;;;;;;;5051326;28;20052;-67
2022/01/30 06:26:25;;;;;;;9.93;5.30;;;;;;;;;;5051245;28;20032;-64
2022/01/30 06:28:50;;;;;;;8.73;4.88;;;;;;;;;;5051347;28;20052;-66
2022/01/30 06:31:16;;;;;;;11.18;5.38;;;;;;;;;;5050997;28;20021;-66
2022/01/30 06:33:42;;;;;;;9.80;5.07;;;;;;;;;;5051582;28;20067;-67
2022/01/30 06:36:07;;;;;;;10.65;5.10;;;;;;;;;;5051311;28;20207;-64
2022/01/30 06:38:32;;;;;;;8.98;4.60;;;;;;;;;;5051156;28;20045;-67
2022/01/30 06:40:58;;;;;;;11.73;5.10;;;;;;;;;;5050655;28;20078;-66
2022/01/30 06:43:23;;;;;;;9.52;4.70;;;;;;;;;;5051152;28;20452;-65
2022/01/30 06:45:49;;;;;;;10.77;5.00;;;;;;;;;;5050707;28;20060;-65
2022/01/30 06:48:18;;;;;;;11.10;5.05;;;;;;;;;;5051335;28;20029;-66
2022/01/30 06:50:44;;;;;;;11.23;5.22;;;;;;;;;;5051033;28;20090;-66
2022/01/30 06:53:09;;;;;;;10.48;5.47;;;;;;;;;;5050930;28;20259;-64
2022/01/30 06:55:38;;;;;;;8.93;4.97;;;;;;;;;;5050874;28;20056;-64
2022/01/30 06:58:03;;;;;;;11.98;5.25;;;;;;;;;;5050885;28;20024;-65
2022/01/30 07:00:29;;;;;;;10.30;5.00;;;;;;;;;;5050312;28;20048;-65
2022/01/30 07:02:54;;;;;;;8.65;5.05;;;;;;;;;;5050592;28;20021;-65
2022/01/30 07:05:20;;;;;;;8.57;4.90;;;;;;;;;;5049283;28;20036;-66
2022/01/30 07:07:45;;;;;;;12.30;5.30;;;;;;;;;;5050178;28;20477;-66
2022/01/30 07:10:11;;;;;;;10.93;5.40;;;;;;;;;;5050006;28;20374;-66
2022/01/30 07:12:36;;;;;;;11.43;5.18;;;;;;;;;;5050574;28;20485;-66
2022/01/30 07:15:02;;;;;;;12.48;6.07;;;;;;;;;;5050487;28;20027;-65
2022/01/30 07:17:27;;;;;;;9.85;5.20;;;;;;;;;;5050424;28;20178;-65
2022/01/30 07:19:53;;;;;;;11.55;5.80;;;;;;;;;;5050292;28;20044;-66
2022/01/30 07:22:18;;;;;;;12.68;5.10;;;;;;;;;;5049846;28;20025;-66
2022/01/30 07:24:43;;;;;;;11.25;5.55;;;;;;;;;;5050350;28;20021;-67
2022/01/30 07:27:09;;;;;;;11.10;4.80;;;;;;;;;;5050406;28;20029;-66
2022/01/30 07:29:34;;;;;;;11.43;5.53;;;;;;;;;;5050254;28;20044;-66
2022/01/30 07:32:00;;;;;;;13.45;6.25;;;;;;;;;;5050298;28;20024;-66
2022/01/30 07:34:26;;;;;;;10.90;5.53;;;;;;;;;;5050302;28;20029;-66
2022/01/30 07:36:55;;;;;;;11.15;5.68;;;;;;;;;;5050146;28;20025;-67
2022/01/30 07:39:21;;;;;;;12.65;6.20;;;;;;;;;;5049836;28;20037;-66
2022/01/30 07:41:47;;;;;;;13.18;5.90;;;;;;;;;;5050194;28;20388;-66
2022/01/30 07:44:12;;;;;;;15.43;6.63;;;;;;;;;;5049950;28;20021;-66
2022/01/30 07:46:38;;;;;;;11.35;6.10;;;;;;;;;;5049956;28;20051;-66
2022/01/30 07:49:03;;;;;;;12.15;6.15;;;;;;;;;;5050190;28;20388;-65
2022/01/30 07:51:29;;;;;;;14.55;5.93;;;;;;;;;;5049850;28;20385;-65
2022/01/30 07:53:55;;;;;;;11.15;5.38;;;;;;;;;;5049784;28;20037;-65
2022/01/30 07:56:20;;;;;;;12.90;5.78;;;;;;;;;;5049769;28;20496;-66
2022/01/30 07:58:45;;;;;;;12.52;5.63;;;;;;;;;;5049905;28;20037;-66
2022/01/30 08:01:11;;;;;;;9.05;5.38;;;;;;;;;;5049638;28;20017;-66
2022/01/30 08:03:36;;;;;;;11.50;6.07;;;;;;;;;;5050016;28;20025;-66
2022/01/30 08:06:02;;;;;;;15.38;5.72;;;;;;;;;;5049859;28;20033;-65
2022/01/30 08:08:27;;;;;;;15.05;5.95;;;;;;;;;;5049925;28;20036;-66
2022/01/30 08:10:53;;;;;;;9.35;4.93;;;;;;;;;;5049743;28;20017;-66
2022/01/30 08:13:18;;;;;;;11.75;5.50;;;;;;;;;;5049794;28;20443;-66
2022/01/30 08:15:45;;;;;;;13.50;6.25;;;;;;;;;;5049424;28;20025;-66
2022/01/30 08:18:10;;;;;;;12.38;5.97;;;;;;;;;;5050072;28;20032;-66
2022/01/30 08:20:36;;;;;;;11.80;5.68;;;;;;;;;;5052077;28;20380;-66
2022/01/30 08:23:07;;;;;;;12.50;5.80;;;;;;;;;;5053554;28;20075;-66
2022/01/30 08:25:33;;;;;;;12.80;6.20;;;;;;;;;;5053781;28;20021;-66
2022/01/30 08:27:58;;;;;;;13.50;6.18;;;;;;;;;;5053782;28;20036;-66
2022/01/30 08:30:27;;;;;;;10.40;5.90;;;;;;;;;;5053693;28;20428;-66
2022/01/30 08:32:52;;;;;;;11.60;6.07;;;;;;;;;;5053153;28;20370;-65
2022/01/30 08:35:19;;;;;;;13.43;6.28;;;;;;;;;;5053490;28;20044;-66
2022/01/30 08:37:45;;;;;;;12.70;6.25;;;;;;;;;;5053217;28;20025;-67
2022/01/30 08:40:19;;;;;;;11.75;6.40;;;;;;;;;;5053321;28;20041;-67
2022/01/30 08:42:46;;;;;;;11.50;6.03;;;;;;;;;;5053331;28;20572;-66
2022/01/30 08:45:13;;;;;;;10.35;6.22;;;;;;;;;;5053085;28;20105;-66
2022/01/30 08:47:44;;;;;;;11.10;6.03;;;;;;;;;;5053432;28;20485;-66
2022/01/30 08:50:11;;;;;;;9.98;5.82;;;;;;;;;;5053292;28;20654;-67
2022/01/30 08:52:37;;;;;;;12.05;6.70;;;;;;;;;;5052965;28;20064;-68
2022/01/30 08:55:04;;;;;;;11.02;5.47;;;;;;;;;;5053236;28;20040;-67
2022/01/30 08:57:29;;;;;;;12.30;5.97;;;;;;;;;;5053011;28;20283;-66
2022/01/30 08:59:57;;;;;;;19.58;6.22;;;;;;;;;;5053058;28;20256;-66
2022/01/30 09:02:23;;;;;;;16.13;6.38;;;;;;;;;;5052998;28;20531;-66
2022/01/30 09:04:49;;;;;;;14.32;6.40;;;;;;;;;;5052886;28;20021;-67
2022/01/30 09:07:14;;;;;;;11.65;6.07;;;;;;;;;;5053270;28;20515;-66
2022/01/30 09:09:40;;;;;;;14.88;6.53;;;;;;;;;;5053003;28;20491;-67
2022/01/30 09:12:06;;;;;;;14.23;6.80;;;;;;;;;;5052711;28;20052;-66
2022/01/30 09:14:32;;;;;;;14.13;6.40;;;;;;;;;;5052552;28;20082;-66
2022/01/30 09:16:58;;;;;;;12.68;6.57;;;;;;;;;;5052636;28;20519;-66
2022/01/30 09:19:23;;;;;;;17.35;7.38;;;;;;;;;;5052717;28;20025;-66
2022/01/30 09:21:48;;;;;;;15.52;7.03;;;;;;;;;;5052459;28;20021;-66
2022/01/30 09:24:14;;;;;;;13.15;6.97;;;;;;;;;;5052675;28;20121;-66
2022/01/30 09:26:41;;;;;;;14.98;7.10;;;;;;;;;;5052572;28;20044;-66
2022/01/30 09:29:06;;;;;;;12.50;6.47;;;;;;;;;;5052618;28;20035;-67
2022/01/30 09:31:32;;;;;;;13.50;6.65;;;;;;;;;;5051195;28;20025;-66
2022/01/30 09:33:57;;;;;;;12.43;6.03;;;;;;;;;;5052333;28;20318;-65
2022/01/30 09:36:22;;;;;;;13.15;6.43;;;;;;;;;;5052345;28;20021;-66
2022/01/30 09:38:50;;;;;;;14.27;6.78;;;;;;;;;;5052100;28;20125;-66
2022/01/30 09:41:20;;;;;;;13.43;6.20;;;;;;;;;;5052232;28;20029;-67
2022/01/30 09:43:45;;;;;;;13.90;5.63;;;;;;;;;;5052254;28;20021;-66
2022/01/30 09:46:11;;;;;;;12.18;5.00;;;;;;;;;;5052003;28;20059;-66
2022/01/30 09:48:38;;;;;;;11.15;5.50;;;;;;;;;;5052613;28;20091;-67
2022/01/30 09:51:12;;;;;;;10.00;5.35;;;;;;;;;;5051979;28;20087;-67
2022/01/30 09:53:38;;;;;;;13.45;5.57;;;;;;;;;;5051862;28;20032;-67
2022/01/30 09:56:06;;;;;;;11.82;4.97;;;;;;;;;;5052313;28;20029;-65
2022/01/30 09:58:32;;;;;;;10.10;4.72;;;;;;;;;;5051828;28;20029;-66
2022/01/30 10:00:58;;;;;;;9.43;4.78;;;;;;;;;;5051756;28;20104;-66
2022/01/30 10:03:26;;;;;;;11.55;5.15;;;;;;;;;;5052040;28;20437;-66
2022/01/30 10:06:18;;;;;;;8.95;4.93;;;;;;;;;;5051964;28;20108;-66
2022/01/30 10:08:46;;;;;;;11.48;4.95;;;;;;;;;;5051925;28;20032;-67
2022/01/30 10:11:35;;;;;;;13.57;4.78;;;;;;;;;;5051475;28;20036;-67
2022/01/30 10:14:11;;;;;;;11.32;5.13;;;;;;;;;;5051454;28;20412;-66
2022/01/30 10:16:46;;;;;;;14.45;4.40;;;;;;;;;;5051581;28;20091;-66
2022/01/30 10:19:17;;;;;;;12.43;3.30;;;;;;;;;;5051881;28;20372;-66
2022/01/30 10:21:44;;;;;;;10.82;3.30;;;;;;;;;;5051293;28;20086;-66
2022/01/30 10:24:20;;;;;;;12.00;3.60;;;;;;;;;;5051491;28;20025;-66
2022/01/30 10:26:46;;;;;;;16.40;4.00;;;;;;;;;;5051478;28;20029;-66
2022/01/30 10:29:24;;;;;;;9.35;3.38;;;;;;;;;;5051187;28;20036;-66
2022/01/30 10:32:16;;;;;;;10.95;3.40;;;;;;;;;;5051137;28;20071;-67
2022/01/30 10:34:43;;;;;;;9.80;3.83;;;;;;;;;;5049922;28;20037;-66
2022/01/30 10:37:15;;;;;;;10.32;3.38;;;;;;;;;;5051428;28;20048;-66
2022/01/30 10:39:56;;;;;;;11.85;3.53;;;;;;;;;;5051109;28;20478;-66
2022/01/30 10:42:33;;;;;;;10.60;3.58;;;;;;;;;;5050847;28;20074;-66
2022/01/30 10:44:59;;;;;;;11.32;3.60;;;;;;;;;;5050966;28;20086;-66
2022/01/30 10:47:25;;;;;;;9.65;3.38;;;;;;;;;;5050911;28;20044;-66
2022/01/30 10:49:51;;;;;;;12.35;3.40;;;;;;;;;;5051123;28;20025;-66
2022/01/30 10:52:17;;;;;;;9.43;3.55;;;;;;;;;;5050786;28;20020;-66
2022/01/30 10:54:48;;;;;;;7.80;3.40;;;;;;;;;;5051125;28;20285;-66
2022/01/30 10:57:14;;;;;;;8.15;3.95;;;;;;;;;;5050841;28;20067;-67
2022/01/30 10:59:46;;;;;;;11.30;3.42;;;;;;;;;;5050776;28;20053;-66
2022/01/30 11:02:22;;;;;;;13.98;4.15;;;;;;;;;;5050445;28;20032;-67
2022/01/30 11:04:49;;;;;;;7.15;3.70;;;;;;;;;;5050806;28;20028;-66
2022/01/30 11:07:19;;;;;;;8.77;3.97;;;;;;;;;;5050440;28;20112;-66
2022/01/30 11:10:13;;;;;;;10.05;4.20;;;;;;;;;;5050434;28;20028;-67
2022/01/30 11:12:56;;;;;;;11.80;3.70;;;;;;;;;;5050486;28;20136;-66
2022/01/30 11:15:54;;;;;;;12.25;3.80;;;;;;;;;;5050488;28;20033;-66
2022/01/30 11:18:08;;;;;;;9.57;3.30;;;;;;;;;;5050113;28;20049;-67
2022/01/30 11:20:34;;;;;;;11.02;3.10;;;;;;;;;;5050465;28;20035;-66
2022/01/30 11:23:02;;;;;;;9.45;3.45;;;;;;;;;;5050077;28;20035;-67
2022/01/30 11:25:33;;;;;;;9.18;2.90;;;;;;;;;;5050434;28;20558;-67
2022/01/30 11:28:01;;;;;;;10.05;3.22;;;;;;;;;;5050295;28;20152;-66
2022/01/30 11:30:28;;;;;;;8.18;2.90;;;;;;;;;;5050098;28;20028;-67
2022/01/30 11:32:54;;;;;;;9.40;2.53;;;;;;;;;;5049991;28;20024;-66
2022/01/30 11:35:19;;;;;;;8.10;3.38;;;;;;;;;;5050256;28;20477;-66
2022/01/30 11:37:45;;;;;;;7.30;3.42;;;;;;;;;;5050267;28;20036;-66
2022/01/30 11:40:16;;;;;;;9.77;3.10;;;;;;;;;;5050003;28;20520;-66
2022/01/30 11:42:47;;;;;;;10.40;3.30;;;;;;;;;;5049945;28;20104;-66
2022/01/30 11:45:27;;;;;;;9.70;3.50;;;;;;;;;;5049740;28;20415;-67
2022/01/30 11:48:00;;;;;;;14.55;3.60;;;;;;;;;;5049993;28;20032;-66
2022/01/30 11:50:34;;;;;;;12.95;3.67;;;;;;;;;;5049966;28;20481;-66
2022/01/30 11:53:06;;;;;;;9.65;3.30;;;;;;;;;;5049830;28;20033;-66
2022/01/30 11:55:51;;;;;;;14.05;3.65;;;;;;;;;;5049548;28;20516;-67
2022/01/30 11:58:35;;;;;;;6.50;3.00;;;;;;;;;;5049905;28;20100;-66
2022/01/30 12:01:27;;;;;;;10.80;2.97;;;;;;;;;;5050084;28;20108;-67
2022/01/30 12:03:56;;;;;;;9.63;3.25;;;;;;;;;;5046201;28;20061;-67
2022/01/30 12:06:25;;;;;;;9.63;3.10;;;;;;;;;;5049785;28;20440;-66
2022/01/30 12:08:55;;;;;;;13.00;3.13;;;;;;;;;;5049814;28;20067;-66
2022/01/30 12:11:47;;;;;;;9.75;3.15;;;;;;;;;;5049963;28;20021;-67
2022/01/30 12:14:21;;;;;;;12.48;3.08;;;;;;;;;;5049583;28;20029;-66
2022/01/30 12:16:53;;;;;;;9.02;2.92;;;;;;;;;;5050083;28;20383;-67
2022/01/30 12:19:30;;;;;;;11.32;3.13;;;;;;;;;;5049899;28;20021;-66
2022/01/30 12:21:55;;;;;;;8.45;3.00;;;;;;;;;;5049869;28;20032;-67
2022/01/30 12:24:29;;;;;;;7.80;3.08;;;;;;;;;;5049457;28;20033;-66
2022/01/30 12:27:04;;;;;;;9.70;2.95;;;;;;;;;;5049676;28;20033;-66
2022/01/30 12:29:36;;;;;;;7.50;2.80;;;;;;;;;;5049554;28;20032;-67
2022/01/30 12:32:22;;;;;;;8.73;2.80;;;;;;;;;;5049733;28;20029;-66
2022/01/30 12:34:56;;;;;;;7.05;2.60;;;;;;;;;;5049636;28;20021;-67
2022/01/30 12:37:37;;;;;;;10.63;2.75;;;;;;;;;;5049728;28;20508;-66
2022/01/30 12:40:23;;;;;;;8.82;3.00;;;;;;;;;;5049248;28;20064;-66
2022/01/30 12:42:48;;;;;;;11.48;3.13;;;;;;;;;;5049231;28;20047;-66
2022/01/30 12:45:15;;;;;;;7.75;2.90;;;;;;;;;;5049138;28;20100;-65
2022/01/30 12:47:56;;;;;;;9.07;3.22;;;;;;;;;;5049304;28;20120;-66
2022/01/30 12:50:28;;;;;;;9.57;3.20;;;;;;;;;;5049668;28;20028;-66
2022/01/30 12:52:54;;;;;;;10.88;3.30;;;;;;;;;;5049289;28;20038;-66
2022/01/30 12:55:20;;;;;;;13.02;3.53;;;;;;;;;;5049615;28;20025;-66
2022/01/30 12:57:47;;;;;;;9.00;3.10;;;;;;;;;;5049289;28;20025;-66
2022/01/30 13:00:16;;;;;;;7.78;2.85;;;;;;;;;;5049148;28;20017;-66
2022/01/30 13:02:59;;;;;;;7.63;3.30;;;;;;;;;;5049086;28;20435;-66
2022/01/30 13:05:27;;;;;;;9.18;3.22;;;;;;;;;;5049430;28;20032;-67
2022/01/30 13:07:55;;;;;;;8.23;2.85;;;;;;;;;;5052850;28;20029;-67
2022/01/30 13:10:22;;;;;;;10.95;3.33;;;;;;;;;;5052973;28;20078;-66
2022/01/30 13:12:49;;;;;;;10.18;3.03;;;;;;;;;;5052556;28;20547;-65
2022/01/30 13:15:17;;;;;;;10.40;3.55;;;;;;;;;;5052560;28;20460;-66
2022/01/30 13:17:43;;;;;;;7.28;2.83;;;;;;;;;;5052663;28;20032;-66
2022/01/30 13:20:12;;;;;;;7.75;3.05;;;;;;;;;;5052816;28;20095;-66
2022/01/30 13:22:43;;;;;;;11.02;3.13;;;;;;;;;;5052175;28;20032;-67
2022/01/30 13:25:15;;;;;;;11.38;2.97;;;;;;;;;;5052337;28;20029;-66
2022/01/30 13:27:43;;;;;;;8.68;2.97;;;;;;;;;;5052523;28;20112;-66
2022/01/30 13:30:09;;;;;;;10.90;3.38;;;;;;;;;;5052431;28;20025;-66
2022/01/30 13:32:40;;;;;;;9.65;3.10;;;;;;;;;;5052473;28;20031;-66
2022/01/30 13:35:15;;;;;;;;;;;;;;;;;;5052837;28;20150;-65
2022/01/30 13:37:42;;;;;;;10.35;3.17;;;;;;;;;;5052318;28;20070;-66
2022/01/30 13:40:23;;;;;;;10.63;2.50;;;;;;;;;;5052133;28;20377;-65
2022/01/30 13:47:54;;;;;;;9.45;2.78;;;;;;;;;;5052273;28;20093;-65
2022/01/30 13:50:25;;;;;;;8.93;3.22;;;;;;;;;;5052617;28;20037;-66
2022/01/30 13:53:08;;;;;;;12.60;2.90;;;;;;;;;;5052080;28;20506;-66
2022/01/30 13:55:36;;;;;;;9.73;3.10;;;;;;;;;;5052220;28;20143;-66
2022/01/30 13:58:03;;;;;;;8.85;2.80;;;;;;;;;;5051931;28;20017;-66
2022/01/30 14:00:32;;;;;;;10.73;3.08;;;;;;;;;;5051730;28;20028;-65
2022/01/30 14:03:01;;;;;;;9.65;2.80;;;;;;;;;;5051863;28;20090;-67
2022/01/30 14:05:36;;;;;;;10.55;3.00;;;;;;;;;;5051851;28;20036;-66
2022/01/30 14:08:12;;;;;;;10.38;2.83;;;;;;;;;;5051661;28;20021;-66
2022/01/30 14:10:39;;;;;;;12.85;3.13;;;;;;;;;;5051856;28;20056;-66
2022/01/30 14:13:08;;;;;;;9.45;2.67;;;;;;;;;;5051572;28;20032;-65
2022/01/30 14:15:35;;;;;;;11.63;2.92;;;;;;;;;;5051917;28;20060;-65
2022/01/30 14:18:06;;;;;;;12.23;3.50;;;;;;;;;;5051077;28;20089;-66
2022/01/30 14:20:31;;;;;;;11.27;3.15;;;;;;;;;;5051456;28;20028;-66
2022/01/30 14:23:06;;;;;;;10.10;2.90;;;;;;;;;;5051368;28;20447;-66
2022/01/30 14:25:31;;;;;;;7.65;2.75;;;;;;;;;;5051249;28;20033;-66
2022/01/30 14:27:57;;;;;;;8.98;2.83;;;;;;;;;;5051616;28;20051;-66
2022/01/30 14:30:38;;;;;;;9.82;2.88;;;;;;;;;;5051145;28;20045;-66
2022/01/30 14:33:04;;;;;;;10.60;3.00;;;;;;;;;;5051478;28;20052;-66
2022/01/30 14:35:35;;;;;;;10.35;3.00;;;;;;;;;;5051132;28;20029;-66
2022/01/30 14:38:01;;;;;;;;;;;;;;;;;;5051468;28;20080;-64
2022/01/30 14:40:27;;;;;;;12.60;2.80;;;;;;;;;;5050948;28;19921;-66
2022/01/30 14:42:52;;;;;;;11.70;2.90;;;;;;;;;;5051379;28;20082;-65
2022/01/30 14:45:17;;;;;;;14.95;3.08;;;;;;;;;;5050760;28;20049;-67
2022/01/30 14:47:43;;;;;;;12.02;3.22;;;;;;;;;;5051096;28;20082;-66
2022/01/30 14:50:08;;;;;;;14.95;3.28;;;;;;;;;;5051084;28;20056;-67
2022/01/30 14:52:34;;;;;;;12.20;2.90;;;;;;;;;;5051140;28;20126;-67
2022/01/30 14:54:59;;;;;;;7.88;3.08;;;;;;;;;;5050752;28;20408;-67
2022/01/30 14:57:25;;;;;;;13.23;3.05;;;;;;;;;;5050887;28;20037;-66
2022/01/30 14:59:51;;;;;;;10.63;3.30;;;;;;;;;;5050670;28;20035;-66
2022/01/30 15:02:17;;;;;;;9.90;3.17;;;;;;;;;;5050803;28;20078;-66
2022/01/30 15:04:42;;;;;;;9.13;3.28;;;;;;;;;;5050639;28;20036;-66
2022/01/30 15:07:07;;;;;;;16.63;3.55;;;;;;;;;;5050981;28;20376;-67
2022/01/30 15:09:33;;;;;;;15.23;3.70;;;;;;;;;;5050917;28;20052;-67
2022/01/30 15:11:59;;;;;;;12.32;3.30;;;;;;;;;;5050598;28;20017;-66
2022/01/30 15:14:33;;;;;;;11.40;2.75;;;;;;;;;;5050220;28;20111;-67
2022/01/30 15:16:59;;;;;;;12.35;3.30;;;;;;;;;;5050489;28;20384;-66
2022/01/30 15:19:24;;;;;;;7.47;3.22;;;;;;;;;;5050506;28;20017;-66
2022/01/30 15:21:50;;;;;;;10.38;3.72;;;;;;;;;;5050317;28;20021;-67
2022/01/30 15:24:16;;;;;;;10.13;3.25;;;;;;;;;;5050230;28;20021;-66
2022/01/30 15:26:42;;;;;;;15.93;3.65;;;;;;;;;;5050222;28;20126;-67
2022/01/30 15:29:11;;;;;;;10.32;3.53;;;;;;;;;;5049474;28;20025;-67
2022/01/30 15:31:38;;;;;;;11.63;3.78;;;;;;;;;;5050443;28;20078;-66
2022/01/30 15:34:03;;;;;;;8.82;2.88;;;;;;;;;;5049732;28;20028;-66
2022/01/30 15:36:29;;;;;;;12.68;3.35;;;;;;;;;;5050106;28;20104;-66
2022/01/30 15:38:55;;;;;;;11.25;3.40;;;;;;;;;;5049985;28;20163;-66
2022/01/30 15:41:21;;;;;;;13.23;4.38;;;;;;;;;;5050338;28;20091;-66
2022/01/30 15:43:48;;;;;;;12.00;4.07;;;;;;;;;;5050086;28;20023;-67
2022/01/30 15:49:02;;;;;;;12.85;4.03;;;;;;;;;;5049965;28;20072;-66